sensor_id;sensor_type;location;lat;lon;timestamp;P1;durP1;ratioP1;P2;durP2;ratioP2
47599;SDS011;33323;52.124;6.018;2023-09-12T00:02:15;33.08;;;19.65;;
47599;SDS011;33323;52.124;6.018;2023-09-12T00:04:42;28.83;;;19.30;;
47599;SDS011;33323;52.124;6.018;2023-09-12T00:07:09;27.55;;;18.10;;
47599;SDS011;33323;52.124;6.018;2023-09-12T00:09:36;30.67;;;19.33;;
47599;SDS011;33323;52.124;6.018;2023-09-12T00:12:03;32.03;;;19.55;;
47599;SDS011;33323;52.124;6.018;2023-09-12T00:14:31;28.67;;;19.17;;
47599;SDS011;33323;52.124;6.018;2023-09-12T00:16:58;26.90;;;18.40;;
47599;SDS011;33323;52.124;6.018;2023-09-12T00:19:25;30.42;;;19.98;;
47599;SDS011;33323;52.124;6.018;2023-09-12T00:21:52;27.88;;;17.95;;
47599;SDS011;33323;52.124;6.018;2023-09-12T00:24:19;29.23;;;18.55;;
47599;SDS011;33323;52.124;6.018;2023-09-12T00:26:46;27.50;;;17.85;;
47599;SDS011;33323;52.124;6.018;2023-09-12T00:29:13;44.72;;;18.95;;
47599;SDS011;33323;52.124;6.018;2023-09-12T00:31:40;24.40;;;18.27;;
47599;SDS011;33323;52.124;6.018;2023-09-12T00:34:08;29.90;;;18.58;;
47599;SDS011;33323;52.124;6.018;2023-09-12T00:36:35;30.38;;;18.83;;
47599;SDS011;33323;52.124;6.018;2023-09-12T00:39:04;29.90;;;19.60;;
47599;SDS011;33323;52.124;6.018;2023-09-12T00:41:31;27.40;;;17.17;;
47599;SDS011;33323;52.124;6.018;2023-09-12T00:43:58;28.67;;;17.75;;
47599;SDS011;33323;52.124;6.018;2023-09-12T00:46:25;22.48;;;15.82;;
47599;SDS011;33323;52.124;6.018;2023-09-12T00:48:55;26.48;;;17.05;;
47599;SDS011;33323;52.124;6.018;2023-09-12T00:51:25;28.77;;;17.77;;
47599;SDS011;33323;52.124;6.018;2023-09-12T00:53:53;28.85;;;19.35;;
47599;SDS011;33323;52.124;6.018;2023-09-12T00:56:21;24.20;;;17.80;;
47599;SDS011;33323;52.124;6.018;2023-09-12T00:58:49;29.10;;;18.95;;
47599;SDS011;33323;52.124;6.018;2023-09-12T01:01:20;25.70;;;17.38;;
47599;SDS011;33323;52.124;6.018;2023-09-12T01:03:48;26.67;;;17.38;;
47599;SDS011;33323;52.124;6.018;2023-09-12T01:06:16;31.58;;;19.73;;
47599;SDS011;33323;52.124;6.018;2023-09-12T01:08:46;28.67;;;18.27;;
47599;SDS011;33323;52.124;6.018;2023-09-12T01:11:13;24.88;;;17.23;;
47599;SDS011;33323;52.124;6.018;2023-09-12T01:13:41;26.98;;;19.58;;
47599;SDS011;33323;52.124;6.018;2023-09-12T01:16:07;26.05;;;18.08;;
47599;SDS011;33323;52.124;6.018;2023-09-12T01:18:35;24.88;;;17.85;;
47599;SDS011;33323;52.124;6.018;2023-09-12T01:27:07;30.50;;;18.80;;
47599;SDS011;33323;52.124;6.018;2023-09-12T01:29:51;22.45;;;16.05;;
47599;SDS011;33323;52.124;6.018;2023-09-12T01:32:31;16.90;;;13.05;;
47599;SDS011;33323;52.124;6.018;2023-09-12T01:35:02;22.73;;;15.15;;
47599;SDS011;33323;52.124;6.018;2023-09-12T01:37:33;23.88;;;14.65;;
47599;SDS011;33323;52.124;6.018;2023-09-12T01:40:00;28.33;;;15.10;;
47599;SDS011;33323;52.124;6.018;2023-09-12T01:42:31;22.25;;;14.77;;
47599;SDS011;33323;52.124;6.018;2023-09-12T01:45:05;21.48;;;14.85;;
47599;SDS011;33323;52.124;6.018;2023-09-12T01:47:36;24.10;;;13.98;;
47599;SDS011;33323;52.124;6.018;2023-09-12T01:50:05;19.92;;;10.88;;
47599;SDS011;33323;52.124;6.018;2023-09-12T01:52:36;17.98;;;13.60;;
47599;SDS011;33323;52.124;6.018;2023-09-12T01:55:03;21.02;;;12.27;;
47599;SDS011;33323;52.124;6.018;2023-09-12T01:57:31;21.65;;;14.68;;
47599;SDS011;33323;52.124;6.018;2023-09-12T01:59:59;26.83;;;15.15;;
47599;SDS011;33323;52.124;6.018;2023-09-12T02:02:26;85.60;;;16.23;;
47599;SDS011;33323;52.124;6.018;2023-09-12T02:07:57;80.35;;;16.73;;
47599;SDS011;33323;52.124;6.018;2023-09-12T02:10:27;112.82;;;17.80;;
47599;SDS011;33323;52.124;6.018;2023-09-12T02:12:54;18.33;;;11.95;;
47599;SDS011;33323;52.124;6.018;2023-09-12T02:15:21;25.88;;;11.98;;
47599;SDS011;33323;52.124;6.018;2023-09-12T02:17:48;18.15;;;11.05;;
47599;SDS011;33323;52.124;6.018;2023-09-12T02:20:18;26.98;;;12.00;;
47599;SDS011;33323;52.124;6.018;2023-09-12T02:22:48;24.52;;;16.15;;
47599;SDS011;33323;52.124;6.018;2023-09-12T02:25:16;47.95;;;13.77;;
47599;SDS011;33323;52.124;6.018;2023-09-12T02:27:46;21.27;;;14.65;;
47599;SDS011;33323;52.124;6.018;2023-09-12T02:30:13;43.53;;;14.27;;
47599;SDS011;33323;52.124;6.018;2023-09-12T02:32:44;20.17;;;13.82;;
47599;SDS011;33323;52.124;6.018;2023-09-12T02:35:11;22.55;;;15.27;;
47599;SDS011;33323;52.124;6.018;2023-09-12T02:37:38;25.60;;;16.77;;
47599;SDS011;33323;52.124;6.018;2023-09-12T02:40:05;24.00;;;16.67;;
47599;SDS011;33323;52.124;6.018;2023-09-12T02:42:34;18.60;;;12.82;;
47599;SDS011;33323;52.124;6.018;2023-09-12T02:45:01;22.65;;;14.65;;
47599;SDS011;33323;52.124;6.018;2023-09-12T02:47:29;27.05;;;16.88;;
47599;SDS011;33323;52.124;6.018;2023-09-12T02:49:56;22.63;;;14.50;;
47599;SDS011;33323;52.124;6.018;2023-09-12T02:52:23;20.10;;;13.93;;
47599;SDS011;33323;52.124;6.018;2023-09-12T02:54:50;23.80;;;15.60;;
47599;SDS011;33323;52.124;6.018;2023-09-12T02:57:17;18.20;;;12.13;;
47599;SDS011;33323;52.124;6.018;2023-09-12T02:59:44;17.20;;;11.93;;
47599;SDS011;33323;52.124;6.018;2023-09-12T03:02:11;20.95;;;13.68;;
47599;SDS011;33323;52.124;6.018;2023-09-12T03:04:38;18.55;;;13.18;;
47599;SDS011;33323;52.124;6.018;2023-09-12T03:07:05;20.10;;;14.15;;
47599;SDS011;33323;52.124;6.018;2023-09-12T03:09:33;20.00;;;14.18;;
47599;SDS011;33323;52.124;6.018;2023-09-12T03:12:04;17.02;;;13.27;;
47599;SDS011;33323;52.124;6.018;2023-09-12T03:14:33;22.23;;;13.68;;
47599;SDS011;33323;52.124;6.018;2023-09-12T03:17:00;19.30;;;13.35;;
47599;SDS011;33323;52.124;6.018;2023-09-12T03:19:27;16.88;;;11.50;;
47599;SDS011;33323;52.124;6.018;2023-09-12T03:21:56;16.85;;;11.75;;
47599;SDS011;33323;52.124;6.018;2023-09-12T03:24:23;16.98;;;12.10;;
47599;SDS011;33323;52.124;6.018;2023-09-12T03:26:51;20.58;;;14.50;;
47599;SDS011;33323;52.124;6.018;2023-09-12T03:29:18;21.95;;;15.02;;
47599;SDS011;33323;52.124;6.018;2023-09-12T03:31:46;21.58;;;13.43;;
47599;SDS011;33323;52.124;6.018;2023-09-12T03:34:13;20.83;;;14.13;;
47599;SDS011;33323;52.124;6.018;2023-09-12T03:36:40;19.42;;;13.70;;
47599;SDS011;33323;52.124;6.018;2023-09-12T03:39:08;19.13;;;14.07;;
47599;SDS011;33323;52.124;6.018;2023-09-12T03:41:35;25.25;;;16.38;;
47599;SDS011;33323;52.124;6.018;2023-09-12T03:44:02;23.13;;;16.83;;
47599;SDS011;33323;52.124;6.018;2023-09-12T03:46:30;22.35;;;15.00;;
47599;SDS011;33323;52.124;6.018;2023-09-12T03:48:57;23.65;;;15.68;;
47599;SDS011;33323;52.124;6.018;2023-09-12T03:51:24;21.52;;;15.43;;
47599;SDS011;33323;52.124;6.018;2023-09-12T03:53:51;23.45;;;15.55;;
47599;SDS011;33323;52.124;6.018;2023-09-12T03:56:18;24.17;;;15.40;;
47599;SDS011;33323;52.124;6.018;2023-09-12T03:58:46;20.73;;;14.05;;
47599;SDS011;33323;52.124;6.018;2023-09-12T04:01:13;21.17;;;13.95;;
47599;SDS011;33323;52.124;6.018;2023-09-12T04:03:41;21.55;;;13.27;;
47599;SDS011;33323;52.124;6.018;2023-09-12T04:06:09;19.17;;;13.05;;
47599;SDS011;33323;52.124;6.018;2023-09-12T04:08:37;22.73;;;12.95;;
47599;SDS011;33323;52.124;6.018;2023-09-12T04:11:04;20.02;;;13.60;;
47599;SDS011;33323;52.124;6.018;2023-09-12T04:13:31;21.33;;;15.20;;
47599;SDS011;33323;52.124;6.018;2023-09-12T04:15:58;19.92;;;13.95;;
47599;SDS011;33323;52.124;6.018;2023-09-12T04:18:25;23.25;;;14.93;;
47599;SDS011;33323;52.124;6.018;2023-09-12T04:20:52;23.25;;;14.35;;
47599;SDS011;33323;52.124;6.018;2023-09-12T04:23:22;25.48;;;15.27;;
47599;SDS011;33323;52.124;6.018;2023-09-12T04:25:49;31.90;;;14.43;;
47599;SDS011;33323;52.124;6.018;2023-09-12T04:28:16;20.83;;;13.20;;
47599;SDS011;33323;52.124;6.018;2023-09-12T04:30:43;20.75;;;12.63;;
47599;SDS011;33323;52.124;6.018;2023-09-12T04:33:13;18.15;;;12.48;;
47599;SDS011;33323;52.124;6.018;2023-09-12T04:35:40;21.48;;;14.27;;
47599;SDS011;33323;52.124;6.018;2023-09-12T04:38:08;31.52;;;12.57;;
47599;SDS011;33323;52.124;6.018;2023-09-12T04:40:35;14.43;;;10.73;;
47599;SDS011;33323;52.124;6.018;2023-09-12T04:43:03;31.02;;;14.13;;
47599;SDS011;33323;52.124;6.018;2023-09-12T04:45:32;18.63;;;12.70;;
47599;SDS011;33323;52.124;6.018;2023-09-12T04:48:00;17.98;;;12.23;;
47599;SDS011;33323;52.124;6.018;2023-09-12T04:50:27;16.63;;;10.43;;
47599;SDS011;33323;52.124;6.018;2023-09-12T04:52:54;19.27;;;10.88;;
47599;SDS011;33323;52.124;6.018;2023-09-12T04:55:21;23.05;;;15.27;;
47599;SDS011;33323;52.124;6.018;2023-09-12T04:57:49;27.70;;;16.63;;
47599;SDS011;33323;52.124;6.018;2023-09-12T05:00:16;21.42;;;14.32;;
47599;SDS011;33323;52.124;6.018;2023-09-12T05:02:43;21.60;;;15.57;;
47599;SDS011;33323;52.124;6.018;2023-09-12T05:05:10;20.33;;;14.85;;
47599;SDS011;33323;52.124;6.018;2023-09-12T05:07:37;24.08;;;14.93;;
47599;SDS011;33323;52.124;6.018;2023-09-12T05:10:05;21.75;;;16.02;;
47599;SDS011;33323;52.124;6.018;2023-09-12T05:12:32;29.55;;;17.67;;
47599;SDS011;33323;52.124;6.018;2023-09-12T05:14:59;27.08;;;16.70;;
47599;SDS011;33323;52.124;6.018;2023-09-12T05:17:27;25.08;;;17.20;;
47599;SDS011;33323;52.124;6.018;2023-09-12T05:19:55;28.48;;;17.42;;
47599;SDS011;33323;52.124;6.018;2023-09-12T05:22:22;25.92;;;16.77;;
47599;SDS011;33323;52.124;6.018;2023-09-12T05:24:49;24.33;;;16.77;;
47599;SDS011;33323;52.124;6.018;2023-09-12T05:27:17;24.73;;;15.48;;
47599;SDS011;33323;52.124;6.018;2023-09-12T05:29:45;26.00;;;15.40;;
47599;SDS011;33323;52.124;6.018;2023-09-12T05:32:12;24.70;;;17.05;;
47599;SDS011;33323;52.124;6.018;2023-09-12T05:34:39;24.42;;;15.85;;
47599;SDS011;33323;52.124;6.018;2023-09-12T05:37:06;30.85;;;16.75;;
47599;SDS011;33323;52.124;6.018;2023-09-12T05:39:33;26.67;;;16.73;;
47599;SDS011;33323;52.124;6.018;2023-09-12T05:42:00;35.80;;;21.67;;
47599;SDS011;33323;52.124;6.018;2023-09-12T05:44:27;36.05;;;20.15;;
47599;SDS011;33323;52.124;6.018;2023-09-12T05:46:54;37.05;;;22.10;;
47599;SDS011;33323;52.124;6.018;2023-09-12T05:49:22;34.20;;;21.63;;
47599;SDS011;33323;52.124;6.018;2023-09-12T05:51:49;36.13;;;21.60;;
47599;SDS011;33323;52.124;6.018;2023-09-12T05:54:17;32.95;;;21.08;;
47599;SDS011;33323;52.124;6.018;2023-09-12T05:56:45;30.98;;;20.55;;
47599;SDS011;33323;52.124;6.018;2023-09-12T05:59:14;33.90;;;19.65;;
47599;SDS011;33323;52.124;6.018;2023-09-12T06:01:41;33.13;;;18.50;;
47599;SDS011;33323;52.124;6.018;2023-09-12T06:04:09;35.28;;;21.83;;
47599;SDS011;33323;52.124;6.018;2023-09-12T06:06:36;37.55;;;21.35;;
47599;SDS011;33323;52.124;6.018;2023-09-12T06:09:05;33.33;;;19.88;;
47599;SDS011;33323;52.124;6.018;2023-09-12T06:11:33;31.33;;;18.55;;
47599;SDS011;33323;52.124;6.018;2023-09-12T06:14:01;31.10;;;18.92;;
47599;SDS011;33323;52.124;6.018;2023-09-12T06:16:28;36.17;;;18.67;;
47599;SDS011;33323;52.124;6.018;2023-09-12T06:18:56;30.13;;;19.88;;
47599;SDS011;33323;52.124;6.018;2023-09-12T06:21:23;36.85;;;21.38;;
47599;SDS011;33323;52.124;6.018;2023-09-12T06:23:57;34.88;;;23.25;;
47599;SDS011;33323;52.124;6.018;2023-09-12T06:26:45;34.90;;;20.02;;
47599;SDS011;33323;52.124;6.018;2023-09-12T06:29:12;37.03;;;21.58;;
47599;SDS011;33323;52.124;6.018;2023-09-12T06:31:41;32.88;;;21.77;;
47599;SDS011;33323;52.124;6.018;2023-09-12T06:34:08;35.28;;;22.17;;
47599;SDS011;33323;52.124;6.018;2023-09-12T06:36:36;37.47;;;23.58;;
47599;SDS011;33323;52.124;6.018;2023-09-12T06:39:05;39.00;;;22.88;;
47599;SDS011;33323;52.124;6.018;2023-09-12T06:41:32;48.05;;;26.58;;
47599;SDS011;33323;52.124;6.018;2023-09-12T06:43:59;41.58;;;25.00;;
47599;SDS011;33323;52.124;6.018;2023-09-12T06:46:26;39.97;;;22.42;;
47599;SDS011;33323;52.124;6.018;2023-09-12T06:48:54;36.10;;;22.35;;
47599;SDS011;33323;52.124;6.018;2023-09-12T06:51:24;39.33;;;24.55;;
47599;SDS011;33323;52.124;6.018;2023-09-12T06:54:01;36.92;;;23.88;;
47599;SDS011;33323;52.124;6.018;2023-09-12T06:56:29;41.25;;;24.65;;
47599;SDS011;33323;52.124;6.018;2023-09-12T06:58:56;40.08;;;23.65;;
47599;SDS011;33323;52.124;6.018;2023-09-12T07:01:24;42.70;;;25.13;;
47599;SDS011;33323;52.124;6.018;2023-09-12T07:03:51;47.17;;;26.60;;
47599;SDS011;33323;52.124;6.018;2023-09-12T07:06:20;46.83;;;26.33;;
47599;SDS011;33323;52.124;6.018;2023-09-12T07:08:48;41.17;;;23.60;;
47599;SDS011;33323;52.124;6.018;2023-09-12T07:11:15;50.80;;;26.50;;
47599;SDS011;33323;52.124;6.018;2023-09-12T07:13:42;42.97;;;25.83;;
47599;SDS011;33323;52.124;6.018;2023-09-12T07:16:10;44.03;;;26.45;;
47599;SDS011;33323;52.124;6.018;2023-09-12T07:18:37;46.38;;;27.17;;
47599;SDS011;33323;52.124;6.018;2023-09-12T07:21:04;44.92;;;27.00;;
47599;SDS011;33323;52.124;6.018;2023-09-12T07:23:33;43.95;;;26.83;;
47599;SDS011;33323;52.124;6.018;2023-09-12T07:26:00;55.63;;;27.02;;
47599;SDS011;33323;52.124;6.018;2023-09-12T07:28:29;51.05;;;29.38;;
47599;SDS011;33323;52.124;6.018;2023-09-12T07:30:57;52.42;;;30.40;;
47599;SDS011;33323;52.124;6.018;2023-09-12T07:33:24;45.30;;;27.15;;
47599;SDS011;33323;52.124;6.018;2023-09-12T07:35:52;58.20;;;31.67;;
47599;SDS011;33323;52.124;6.018;2023-09-12T07:38:20;59.72;;;32.83;;
47599;SDS011;33323;52.124;6.018;2023-09-12T07:40:48;56.90;;;31.58;;
47599;SDS011;33323;52.124;6.018;2023-09-12T07:43:15;62.63;;;33.72;;
47599;SDS011;33323;52.124;6.018;2023-09-12T07:45:42;57.05;;;32.53;;
47599;SDS011;33323;52.124;6.018;2023-09-12T07:48:10;63.70;;;34.13;;
47599;SDS011;33323;52.124;6.018;2023-09-12T07:50:38;58.25;;;33.78;;
47599;SDS011;33323;52.124;6.018;2023-09-12T07:53:05;56.72;;;33.63;;
47599;SDS011;33323;52.124;6.018;2023-09-12T07:55:36;51.75;;;31.27;;
47599;SDS011;33323;52.124;6.018;2023-09-12T07:58:15;49.10;;;32.20;;
47599;SDS011;33323;52.124;6.018;2023-09-12T08:00:47;55.05;;;31.45;;
47599;SDS011;33323;52.124;6.018;2023-09-12T08:03:15;54.22;;;32.28;;
47599;SDS011;33323;52.124;6.018;2023-09-12T08:05:42;48.20;;;30.02;;
47599;SDS011;33323;52.124;6.018;2023-09-12T08:08:09;49.42;;;31.58;;
47599;SDS011;33323;52.124;6.018;2023-09-12T08:10:36;45.75;;;28.80;;
47599;SDS011;33323;52.124;6.018;2023-09-12T08:13:03;48.40;;;30.50;;
47599;SDS011;33323;52.124;6.018;2023-09-12T08:15:30;49.45;;;30.35;;
47599;SDS011;33323;52.124;6.018;2023-09-12T08:17:58;51.17;;;30.08;;
47599;SDS011;33323;52.124;6.018;2023-09-12T08:20:25;48.25;;;28.58;;
47599;SDS011;33323;52.124;6.018;2023-09-12T08:22:52;46.85;;;29.33;;
47599;SDS011;33323;52.124;6.018;2023-09-12T08:25:21;48.28;;;31.48;;
47599;SDS011;33323;52.124;6.018;2023-09-12T08:27:48;48.13;;;31.13;;
47599;SDS011;33323;52.124;6.018;2023-09-12T08:30:15;43.42;;;27.25;;
47599;SDS011;33323;52.124;6.018;2023-09-12T08:32:43;45.60;;;29.17;;
47599;SDS011;33323;52.124;6.018;2023-09-12T08:35:11;40.85;;;27.30;;
47599;SDS011;33323;52.124;6.018;2023-09-12T08:37:40;40.75;;;26.05;;
47599;SDS011;33323;52.124;6.018;2023-09-12T08:40:08;40.33;;;27.13;;
47599;SDS011;33323;52.124;6.018;2023-09-12T08:42:39;41.47;;;25.60;;
47599;SDS011;33323;52.124;6.018;2023-09-12T08:45:12;41.53;;;26.52;;
47599;SDS011;33323;52.124;6.018;2023-09-12T08:47:43;35.15;;;23.42;;
47599;SDS011;33323;52.124;6.018;2023-09-12T08:50:13;41.15;;;25.30;;
47599;SDS011;33323;52.124;6.018;2023-09-12T08:52:44;40.63;;;23.33;;
47599;SDS011;33323;52.124;6.018;2023-09-12T08:55:32;33.88;;;21.15;;
47599;SDS011;33323;52.124;6.018;2023-09-12T08:58:03;30.05;;;20.33;;
47599;SDS011;33323;52.124;6.018;2023-09-12T09:00:32;30.70;;;20.35;;
47599;SDS011;33323;52.124;6.018;2023-09-12T09:03:01;33.13;;;20.67;;
47599;SDS011;33323;52.124;6.018;2023-09-12T09:05:30;26.85;;;19.08;;
47599;SDS011;33323;52.124;6.018;2023-09-12T09:07:58;28.58;;;17.02;;
47599;SDS011;33323;52.124;6.018;2023-09-12T09:10:26;27.67;;;17.55;;
47599;SDS011;33323;52.124;6.018;2023-09-12T09:13:16;25.75;;;16.73;;
47599;SDS011;33323;52.124;6.018;2023-09-12T09:15:45;23.20;;;16.55;;
47599;SDS011;33323;52.124;6.018;2023-09-12T09:18:14;18.63;;;12.98;;
47599;SDS011;33323;52.124;6.018;2023-09-12T09:20:41;19.30;;;13.07;;
47599;SDS011;33323;52.124;6.018;2023-09-12T09:23:11;20.10;;;13.13;;
47599;SDS011;33323;52.124;6.018;2023-09-12T09:25:40;17.70;;;11.88;;
47599;SDS011;33323;52.124;6.018;2023-09-12T09:28:18;15.27;;;10.88;;
47599;SDS011;33323;52.124;6.018;2023-09-12T09:30:48;21.23;;;11.18;;
47599;SDS011;33323;52.124;6.018;2023-09-12T09:33:18;15.57;;;10.80;;
47599;SDS011;33323;52.124;6.018;2023-09-12T09:35:47;15.00;;;10.98;;
47599;SDS011;33323;52.124;6.018;2023-09-12T09:38:20;14.50;;;11.32;;
47599;SDS011;33323;52.124;6.018;2023-09-12T09:40:47;14.50;;;10.52;;
47599;SDS011;33323;52.124;6.018;2023-09-12T09:43:24;13.80;;;9.65;;
47599;SDS011;33323;52.124;6.018;2023-09-12T09:45:51;15.88;;;10.50;;
47599;SDS011;33323;52.124;6.018;2023-09-12T09:48:23;9.38;;;7.50;;
47599;SDS011;33323;52.124;6.018;2023-09-12T09:51:02;13.50;;;9.55;;
47599;SDS011;33323;52.124;6.018;2023-09-12T09:53:30;11.98;;;8.65;;
47599;SDS011;33323;52.124;6.018;2023-09-12T09:56:10;15.75;;;10.80;;
47599;SDS011;33323;52.124;6.018;2023-09-12T09:58:46;16.42;;;8.38;;
47599;SDS011;33323;52.124;6.018;2023-09-12T10:01:18;15.60;;;9.13;;
47599;SDS011;33323;52.124;6.018;2023-09-12T10:03:48;8.77;;;6.72;;
47599;SDS011;33323;52.124;6.018;2023-09-12T10:06:17;12.68;;;7.25;;
47599;SDS011;33323;52.124;6.018;2023-09-12T10:08:49;12.10;;;7.18;;
47599;SDS011;33323;52.124;6.018;2023-09-12T10:11:20;11.73;;;8.23;;
47599;SDS011;33323;52.124;6.018;2023-09-12T10:13:54;10.70;;;7.45;;
47599;SDS011;33323;52.124;6.018;2023-09-12T10:16:30;9.95;;;7.10;;
47599;SDS011;33323;52.124;6.018;2023-09-12T10:21:48;10.85;;;7.63;;
47599;SDS011;33323;52.124;6.018;2023-09-12T10:24:17;12.18;;;8.40;;
47599;SDS011;33323;52.124;6.018;2023-09-12T10:26:51;10.82;;;8.18;;
47599;SDS011;33323;52.124;6.018;2023-09-12T10:29:20;13.70;;;7.97;;
47599;SDS011;33323;52.124;6.018;2023-09-12T10:31:49;13.13;;;9.15;;
47599;SDS011;33323;52.124;6.018;2023-09-12T10:34:17;13.82;;;8.35;;
47599;SDS011;33323;52.124;6.018;2023-09-12T10:36:46;13.15;;;8.40;;
47599;SDS011;33323;52.124;6.018;2023-09-12T10:39:16;13.55;;;7.65;;
47599;SDS011;33323;52.124;6.018;2023-09-12T10:41:46;10.40;;;7.32;;
47599;SDS011;33323;52.124;6.018;2023-09-12T10:44:17;11.75;;;7.50;;
47599;SDS011;33323;52.124;6.018;2023-09-12T10:46:45;10.70;;;7.53;;
47599;SDS011;33323;52.124;6.018;2023-09-12T10:49:14;9.00;;;7.38;;
47599;SDS011;33323;52.124;6.018;2023-09-12T10:51:43;11.75;;;7.93;;
47599;SDS011;33323;52.124;6.018;2023-09-12T10:54:23;10.75;;;7.10;;
47599;SDS011;33323;52.124;6.018;2023-09-12T10:57:02;12.52;;;8.70;;
47599;SDS011;33323;52.124;6.018;2023-09-12T10:59:34;10.90;;;7.07;;
47599;SDS011;33323;52.124;6.018;2023-09-12T11:04:59;10.95;;;6.38;;
47599;SDS011;33323;52.124;6.018;2023-09-12T11:12:42;12.40;;;6.47;;
47599;SDS011;33323;52.124;6.018;2023-09-12T11:15:11;9.05;;;5.93;;
47599;SDS011;33323;52.124;6.018;2023-09-12T11:17:40;15.57;;;7.25;;
47599;SDS011;33323;52.124;6.018;2023-09-12T11:20:13;8.35;;;6.93;;
47599;SDS011;33323;52.124;6.018;2023-09-12T11:22:46;9.73;;;6.00;;
47599;SDS011;33323;52.124;6.018;2023-09-12T11:25:17;11.73;;;7.97;;
47599;SDS011;33323;52.124;6.018;2023-09-12T11:28:06;9.95;;;7.45;;
47599;SDS011;33323;52.124;6.018;2023-09-12T11:30:33;13.90;;;6.90;;
47599;SDS011;33323;52.124;6.018;2023-09-12T11:33:04;13.48;;;7.35;;
47599;SDS011;33323;52.124;6.018;2023-09-12T11:35:37;12.85;;;7.15;;
47599;SDS011;33323;52.124;6.018;2023-09-12T11:38:09;10.45;;;6.75;;
47599;SDS011;33323;52.124;6.018;2023-09-12T11:43:05;10.43;;;7.50;;
47599;SDS011;33323;52.124;6.018;2023-09-12T11:45:33;13.18;;;6.97;;
47599;SDS011;33323;52.124;6.018;2023-09-12T11:48:02;8.50;;;6.38;;
47599;SDS011;33323;52.124;6.018;2023-09-12T11:50:31;12.00;;;7.85;;
47599;SDS011;33323;52.124;6.018;2023-09-12T11:53:06;13.90;;;6.85;;
47599;SDS011;33323;52.124;6.018;2023-09-12T11:55:48;10.20;;;7.47;;
47599;SDS011;33323;52.124;6.018;2023-09-12T11:58:20;9.35;;;6.53;;
47599;SDS011;33323;52.124;6.018;2023-09-12T12:00:49;9.73;;;7.47;;
47599;SDS011;33323;52.124;6.018;2023-09-12T12:03:20;10.45;;;6.28;;
47599;SDS011;33323;52.124;6.018;2023-09-12T12:05:50;11.75;;;6.90;;
47599;SDS011;33323;52.124;6.018;2023-09-12T12:08:19;7.85;;;6.05;;
47599;SDS011;33323;52.124;6.018;2023-09-12T12:10:53;7.82;;;5.20;;
47599;SDS011;33323;52.124;6.018;2023-09-12T12:13:21;11.15;;;5.75;;
47599;SDS011;33323;52.124;6.018;2023-09-12T12:15:50;10.18;;;6.38;;
47599;SDS011;33323;52.124;6.018;2023-09-12T12:18:18;7.82;;;5.05;;
47599;SDS011;33323;52.124;6.018;2023-09-12T12:20:45;7.07;;;4.88;;
47599;SDS011;33323;52.124;6.018;2023-09-12T12:23:13;8.60;;;5.32;;
47599;SDS011;33323;52.124;6.018;2023-09-12T12:25:41;6.03;;;5.15;;
47599;SDS011;33323;52.124;6.018;2023-09-12T12:28:08;8.10;;;5.85;;
47599;SDS011;33323;52.124;6.018;2023-09-12T12:30:36;8.88;;;5.75;;
47599;SDS011;33323;52.124;6.018;2023-09-12T12:33:06;6.55;;;4.10;;
47599;SDS011;33323;52.124;6.018;2023-09-12T12:35:59;7.55;;;4.45;;
47599;SDS011;33323;52.124;6.018;2023-09-12T12:38:31;8.38;;;5.57;;
47599;SDS011;33323;52.124;6.018;2023-09-12T12:41:16;7.00;;;4.57;;
47599;SDS011;33323;52.124;6.018;2023-09-12T12:43:59;6.30;;;4.18;;
47599;SDS011;33323;52.124;6.018;2023-09-12T12:46:30;9.23;;;4.70;;
47599;SDS011;33323;52.124;6.018;2023-09-12T12:48:58;5.15;;;4.20;;
47599;SDS011;33323;52.124;6.018;2023-09-12T12:51:25;6.57;;;4.00;;
47599;SDS011;33323;52.124;6.018;2023-09-12T12:53:54;8.07;;;4.65;;
47599;SDS011;33323;52.124;6.018;2023-09-12T12:56:28;5.70;;;3.13;;
47599;SDS011;33323;52.124;6.018;2023-09-12T12:58:58;5.78;;;3.95;;
47599;SDS011;33323;52.124;6.018;2023-09-12T13:01:31;7.68;;;4.43;;
47599;SDS011;33323;52.124;6.018;2023-09-12T13:04:00;5.53;;;4.03;;
47599;SDS011;33323;52.124;6.018;2023-09-12T13:06:28;6.60;;;4.22;;
47599;SDS011;33323;52.124;6.018;2023-09-12T13:08:58;8.07;;;5.32;;
47599;SDS011;33323;52.124;6.018;2023-09-12T13:11:31;6.78;;;4.35;;
47599;SDS011;33323;52.124;6.018;2023-09-12T13:14:02;6.60;;;4.00;;
47599;SDS011;33323;52.124;6.018;2023-09-12T13:16:38;7.90;;;5.03;;
47599;SDS011;33323;52.124;6.018;2023-09-12T13:19:07;5.38;;;3.92;;
47599;SDS011;33323;52.124;6.018;2023-09-12T13:21:37;6.50;;;4.18;;
47599;SDS011;33323;52.124;6.018;2023-09-12T13:24:05;4.70;;;3.60;;
47599;SDS011;33323;52.124;6.018;2023-09-12T13:26:33;8.48;;;4.57;;
47599;SDS011;33323;52.124;6.018;2023-09-12T13:29:01;4.60;;;3.40;;
47599;SDS011;33323;52.124;6.018;2023-09-12T13:31:29;7.88;;;4.13;;
47599;SDS011;33323;52.124;6.018;2023-09-12T13:33:58;5.88;;;3.40;;
47599;SDS011;33323;52.124;6.018;2023-09-12T13:36:26;8.95;;;3.95;;
47599;SDS011;33323;52.124;6.018;2023-09-12T13:38:53;5.40;;;3.80;;
47599;SDS011;33323;52.124;6.018;2023-09-12T13:41:22;6.28;;;4.20;;
47599;SDS011;33323;52.124;6.018;2023-09-12T13:43:51;6.63;;;4.35;;
47599;SDS011;33323;52.124;6.018;2023-09-12T13:46:19;5.35;;;4.00;;
47599;SDS011;33323;52.124;6.018;2023-09-12T13:48:46;8.23;;;4.80;;
47599;SDS011;33323;52.124;6.018;2023-09-12T13:51:15;6.40;;;4.45;;
47599;SDS011;33323;52.124;6.018;2023-09-12T13:53:43;5.75;;;3.70;;
47599;SDS011;33323;52.124;6.018;2023-09-12T13:56:11;7.20;;;4.22;;
47599;SDS011;33323;52.124;6.018;2023-09-12T13:58:46;8.65;;;4.63;;
47599;SDS011;33323;52.124;6.018;2023-09-12T14:01:15;7.63;;;4.20;;
47599;SDS011;33323;52.124;6.018;2023-09-12T14:03:58;8.70;;;5.07;;
47599;SDS011;33323;52.124;6.018;2023-09-12T14:06:26;6.30;;;4.57;;
47599;SDS011;33323;52.124;6.018;2023-09-12T14:08:54;4.88;;;3.78;;
47599;SDS011;33323;52.124;6.018;2023-09-12T14:11:22;7.18;;;3.45;;
47599;SDS011;33323;52.124;6.018;2023-09-12T14:14:01;6.07;;;3.80;;
47599;SDS011;33323;52.124;6.018;2023-09-12T14:16:41;7.97;;;4.15;;
47599;SDS011;33323;52.124;6.018;2023-09-12T14:19:13;5.57;;;4.15;;
47599;SDS011;33323;52.124;6.018;2023-09-12T14:21:41;9.68;;;4.57;;
47599;SDS011;33323;52.124;6.018;2023-09-12T14:24:12;10.02;;;4.68;;
47599;SDS011;33323;52.124;6.018;2023-09-12T14:26:39;4.47;;;3.53;;
47599;SDS011;33323;52.124;6.018;2023-09-12T14:29:07;9.77;;;5.20;;
47599;SDS011;33323;52.124;6.018;2023-09-12T14:31:35;7.65;;;5.18;;
47599;SDS011;33323;52.124;6.018;2023-09-12T14:34:04;7.25;;;5.88;;
47599;SDS011;33323;52.124;6.018;2023-09-12T14:36:32;9.18;;;5.65;;
47599;SDS011;33323;52.124;6.018;2023-09-12T14:39:00;10.90;;;8.32;;
47599;SDS011;33323;52.124;6.018;2023-09-12T14:41:27;12.93;;;6.45;;
47599;SDS011;33323;52.124;6.018;2023-09-12T14:43:54;8.63;;;5.82;;
47599;SDS011;33323;52.124;6.018;2023-09-12T14:46:21;10.60;;;6.15;;
47599;SDS011;33323;52.124;6.018;2023-09-12T14:48:49;10.27;;;6.55;;
47599;SDS011;33323;52.124;6.018;2023-09-12T14:51:28;10.48;;;8.15;;
47599;SDS011;33323;52.124;6.018;2023-09-12T14:53:59;14.52;;;9.13;;
47599;SDS011;33323;52.124;6.018;2023-09-12T14:56:28;12.18;;;8.27;;
47599;SDS011;33323;52.124;6.018;2023-09-12T14:58:56;12.70;;;9.48;;
47599;SDS011;33323;52.124;6.018;2023-09-12T15:01:23;14.35;;;9.20;;
47599;SDS011;33323;52.124;6.018;2023-09-12T15:03:51;11.60;;;8.32;;